sensor_id;sensor_type;location;lat;lon;timestamp;P1;durP1;ratioP1;P2;durP2;ratioP2
15261;SDS011;7733;51.554;13.590;2023-04-25T00:01:39;4.00;;;3.80;;
15261;SDS011;7733;51.554;13.590;2023-04-25T00:04:05;3.57;;;3.33;;
15261;SDS011;7733;51.554;13.590;2023-04-25T00:06:33;3.20;;;3.10;;
15261;SDS011;7733;51.554;13.590;2023-04-25T00:09:01;3.77;;;3.47;;
15261;SDS011;7733;51.554;13.590;2023-04-25T00:11:28;3.50;;;3.30;;
15261;SDS011;7733;51.554;13.590;2023-04-25T00:13:56;3.67;;;3.40;;
15261;SDS011;7733;51.554;13.590;2023-04-25T00:16:22;3.73;;;3.50;;
15261;SDS011;7733;51.554;13.590;2023-04-25T00:18:48;3.23;;;3.10;;
15261;SDS011;7733;51.554;13.590;2023-04-25T00:21:18;3.27;;;3.07;;
15261;SDS011;7733;51.554;13.590;2023-04-25T00:23:45;3.20;;;3.00;;
15261;SDS011;7733;51.554;13.590;2023-04-25T00:26:12;3.53;;;3.03;;
15261;SDS011;7733;51.554;13.590;2023-04-25T00:28:38;3.30;;;3.00;;
15261;SDS011;7733;51.554;13.590;2023-04-25T00:31:05;3.40;;;3.20;;
15261;SDS011;7733;51.554;13.590;2023-04-25T00:33:31;3.10;;;2.90;;
15261;SDS011;7733;51.554;13.590;2023-04-25T00:35:57;3.43;;;3.10;;
15261;SDS011;7733;51.554;13.590;2023-04-25T00:38:23;3.30;;;3.10;;
15261;SDS011;7733;51.554;13.590;2023-04-25T00:40:49;3.00;;;2.70;;
15261;SDS011;7733;51.554;13.590;2023-04-25T00:43:15;3.03;;;2.87;;
15261;SDS011;7733;51.554;13.590;2023-04-25T00:45:40;3.30;;;3.10;;
15261;SDS011;7733;51.554;13.590;2023-04-25T00:48:08;2.90;;;2.70;;
15261;SDS011;7733;51.554;13.590;2023-04-25T00:50:34;2.90;;;2.70;;
15261;SDS011;7733;51.554;13.590;2023-04-25T00:53:01;3.17;;;2.97;;
15261;SDS011;7733;51.554;13.590;2023-04-25T00:55:28;2.73;;;2.63;;
15261;SDS011;7733;51.554;13.590;2023-04-25T00:57:56;3.13;;;2.80;;
15261;SDS011;7733;51.554;13.590;2023-04-25T01:00:22;3.30;;;3.00;;
15261;SDS011;7733;51.554;13.590;2023-04-25T01:02:48;3.03;;;2.83;;
15261;SDS011;7733;51.554;13.590;2023-04-25T01:05:15;2.90;;;2.70;;
15261;SDS011;7733;51.554;13.590;2023-04-25T01:07:41;3.53;;;2.70;;
15261;SDS011;7733;51.554;13.590;2023-04-25T01:10:07;3.03;;;2.83;;
15261;SDS011;7733;51.554;13.590;2023-04-25T01:12:33;3.20;;;3.00;;
15261;SDS011;7733;51.554;13.590;2023-04-25T01:15:00;3.07;;;2.87;;
15261;SDS011;7733;51.554;13.590;2023-04-25T01:17:25;3.30;;;3.10;;
15261;SDS011;7733;51.554;13.590;2023-04-25T01:19:52;3.07;;;2.80;;
15261;SDS011;7733;51.554;13.590;2023-04-25T01:22:18;3.30;;;3.00;;
15261;SDS011;7733;51.554;13.590;2023-04-25T01:24:44;4.53;;;3.33;;
15261;SDS011;7733;51.554;13.590;2023-04-25T01:27:10;3.37;;;3.10;;
15261;SDS011;7733;51.554;13.590;2023-04-25T01:29:36;3.60;;;3.13;;
15261;SDS011;7733;51.554;13.590;2023-04-25T01:32:02;4.87;;;3.03;;
15261;SDS011;7733;51.554;13.590;2023-04-25T01:34:30;3.00;;;2.77;;
15261;SDS011;7733;51.554;13.590;2023-04-25T01:36:55;3.27;;;3.07;;
15261;SDS011;7733;51.554;13.590;2023-04-25T01:39:24;3.27;;;3.07;;
15261;SDS011;7733;51.554;13.590;2023-04-25T01:41:50;4.83;;;3.10;;
15261;SDS011;7733;51.554;13.590;2023-04-25T01:44:16;3.50;;;3.27;;
15261;SDS011;7733;51.554;13.590;2023-04-25T01:46:41;4.07;;;3.00;;
15261;SDS011;7733;51.554;13.590;2023-04-25T01:49:07;3.20;;;3.00;;
15261;SDS011;7733;51.554;13.590;2023-04-25T01:51:33;2.90;;;2.80;;
15261;SDS011;7733;51.554;13.590;2023-04-25T01:53:59;3.30;;;3.10;;
15261;SDS011;7733;51.554;13.590;2023-04-25T01:56:29;3.20;;;3.00;;
15261;SDS011;7733;51.554;13.590;2023-04-25T01:58:56;3.10;;;2.90;;
15261;SDS011;7733;51.554;13.590;2023-04-25T02:01:23;3.53;;;3.23;;
15261;SDS011;7733;51.554;13.590;2023-04-25T02:03:48;3.70;;;3.50;;
15261;SDS011;7733;51.554;13.590;2023-04-25T02:06:14;3.77;;;3.47;;
15261;SDS011;7733;51.554;13.590;2023-04-25T02:08:40;3.20;;;3.00;;
15261;SDS011;7733;51.554;13.590;2023-04-25T02:11:06;3.20;;;2.97;;
15261;SDS011;7733;51.554;13.590;2023-04-25T02:13:31;3.20;;;3.00;;
15261;SDS011;7733;51.554;13.590;2023-04-25T02:15:57;3.37;;;3.00;;
15261;SDS011;7733;51.554;13.590;2023-04-25T02:18:23;4.33;;;3.37;;
15261;SDS011;7733;51.554;13.590;2023-04-25T02:20:48;3.13;;;2.93;;
15261;SDS011;7733;51.554;13.590;2023-04-25T02:23:14;3.57;;;3.20;;
15261;SDS011;7733;51.554;13.590;2023-04-25T02:25:40;3.73;;;3.43;;
15261;SDS011;7733;51.554;13.590;2023-04-25T02:28:06;4.13;;;3.73;;
15261;SDS011;7733;51.554;13.590;2023-04-25T02:30:32;4.20;;;3.63;;
15261;SDS011;7733;51.554;13.590;2023-04-25T02:32:58;3.60;;;3.40;;
15261;SDS011;7733;51.554;13.590;2023-04-25T02:35:24;4.00;;;3.80;;
15261;SDS011;7733;51.554;13.590;2023-04-25T02:37:50;4.63;;;4.10;;
15261;SDS011;7733;51.554;13.590;2023-04-25T02:40:15;4.77;;;4.37;;
15261;SDS011;7733;51.554;13.590;2023-04-25T02:42:41;4.70;;;4.30;;
15261;SDS011;7733;51.554;13.590;2023-04-25T02:45:07;4.70;;;4.30;;
15261;SDS011;7733;51.554;13.590;2023-04-25T02:47:33;4.73;;;4.43;;
15261;SDS011;7733;51.554;13.590;2023-04-25T02:49:59;5.13;;;4.60;;
15261;SDS011;7733;51.554;13.590;2023-04-25T02:52:25;5.00;;;4.50;;
15261;SDS011;7733;51.554;13.590;2023-04-25T02:54:50;5.57;;;4.83;;
15261;SDS011;7733;51.554;13.590;2023-04-25T02:57:16;4.87;;;4.47;;
15261;SDS011;7733;51.554;13.590;2023-04-25T02:59:42;5.33;;;4.90;;
15261;SDS011;7733;51.554;13.590;2023-04-25T03:02:07;5.57;;;5.10;;
15261;SDS011;7733;51.554;13.590;2023-04-25T03:04:35;5.17;;;4.80;;
15261;SDS011;7733;51.554;13.590;2023-04-25T03:07:00;5.93;;;5.40;;
15261;SDS011;7733;51.554;13.590;2023-04-25T03:09:26;4.83;;;4.50;;
15261;SDS011;7733;51.554;13.590;2023-04-25T03:11:52;5.17;;;4.70;;
15261;SDS011;7733;51.554;13.590;2023-04-25T03:14:18;5.03;;;4.70;;
15261;SDS011;7733;51.554;13.590;2023-04-25T03:16:43;5.70;;;5.30;;
15261;SDS011;7733;51.554;13.590;2023-04-25T03:19:10;4.90;;;4.50;;
15261;SDS011;7733;51.554;13.590;2023-04-25T03:21:35;5.20;;;4.80;;
15261;SDS011;7733;51.554;13.590;2023-04-25T03:24:02;5.17;;;4.77;;
15261;SDS011;7733;51.554;13.590;2023-04-25T03:26:29;5.63;;;5.13;;
15261;SDS011;7733;51.554;13.590;2023-04-25T03:28:55;5.47;;;5.07;;
15261;SDS011;7733;51.554;13.590;2023-04-25T03:31:21;5.70;;;5.20;;
15261;SDS011;7733;51.554;13.590;2023-04-25T03:33:47;5.70;;;5.27;;
15261;SDS011;7733;51.554;13.590;2023-04-25T03:36:13;5.57;;;5.07;;
15261;SDS011;7733;51.554;13.590;2023-04-25T03:38:38;5.80;;;5.40;;
15261;SDS011;7733;51.554;13.590;2023-04-25T03:41:06;5.90;;;5.40;;
15261;SDS011;7733;51.554;13.590;2023-04-25T03:43:32;5.37;;;5.07;;
15261;SDS011;7733;51.554;13.590;2023-04-25T03:45:58;5.97;;;5.40;;
15261;SDS011;7733;51.554;13.590;2023-04-25T03:48:25;5.97;;;5.50;;
15261;SDS011;7733;51.554;13.590;2023-04-25T03:50:52;5.70;;;5.10;;
15261;SDS011;7733;51.554;13.590;2023-04-25T03:53:18;6.57;;;5.40;;
15261;SDS011;7733;51.554;13.590;2023-04-25T03:55:44;6.37;;;5.97;;
15261;SDS011;7733;51.554;13.590;2023-04-25T03:58:10;5.90;;;5.30;;
15261;SDS011;7733;51.554;13.590;2023-04-25T04:00:36;6.03;;;5.53;;
15261;SDS011;7733;51.554;13.590;2023-04-25T04:03:02;6.63;;;5.90;;
15261;SDS011;7733;51.554;13.590;2023-04-25T04:05:27;6.10;;;5.70;;
15261;SDS011;7733;51.554;13.590;2023-04-25T04:07:54;5.93;;;5.17;;
15261;SDS011;7733;51.554;13.590;2023-04-25T04:10:20;6.20;;;5.70;;
15261;SDS011;7733;51.554;13.590;2023-04-25T04:12:46;6.60;;;5.93;;
15261;SDS011;7733;51.554;13.590;2023-04-25T04:15:12;6.70;;;5.87;;
15261;SDS011;7733;51.554;13.590;2023-04-25T04:17:37;7.43;;;5.80;;
15261;SDS011;7733;51.554;13.590;2023-04-25T04:20:03;6.20;;;5.60;;
15261;SDS011;7733;51.554;13.590;2023-04-25T04:22:31;5.90;;;5.40;;
15261;SDS011;7733;51.554;13.590;2023-04-25T04:24:57;6.10;;;5.67;;
15261;SDS011;7733;51.554;13.590;2023-04-25T04:27:23;6.30;;;5.70;;
15261;SDS011;7733;51.554;13.590;2023-04-25T04:29:49;6.50;;;5.70;;
15261;SDS011;7733;51.554;13.590;2023-04-25T04:32:16;6.27;;;5.60;;
15261;SDS011;7733;51.554;13.590;2023-04-25T04:34:43;6.03;;;5.43;;
15261;SDS011;7733;51.554;13.590;2023-04-25T04:37:09;5.70;;;5.20;;
15261;SDS011;7733;51.554;13.590;2023-04-25T04:39:35;6.00;;;5.50;;
15261;SDS011;7733;51.554;13.590;2023-04-25T04:42:02;5.50;;;5.07;;
15261;SDS011;7733;51.554;13.590;2023-04-25T04:44:28;6.27;;;5.60;;
15261;SDS011;7733;51.554;13.590;2023-04-25T04:46:57;5.73;;;5.23;;
15261;SDS011;7733;51.554;13.590;2023-04-25T04:49:24;5.37;;;4.97;;
15261;SDS011;7733;51.554;13.590;2023-04-25T04:51:49;5.20;;;4.60;;
15261;SDS011;7733;51.554;13.590;2023-04-25T04:54:15;5.30;;;4.80;;
15261;SDS011;7733;51.554;13.590;2023-04-25T04:56:41;5.33;;;4.93;;
15261;SDS011;7733;51.554;13.590;2023-04-25T04:59:07;5.87;;;5.27;;
15261;SDS011;7733;51.554;13.590;2023-04-25T05:01:33;6.63;;;4.40;;
15261;SDS011;7733;51.554;13.590;2023-04-25T05:04:00;6.40;;;5.00;;
15261;SDS011;7733;51.554;13.590;2023-04-25T05:06:27;5.97;;;4.33;;
15261;SDS011;7733;51.554;13.590;2023-04-25T05:08:57;4.53;;;4.13;;
15261;SDS011;7733;51.554;13.590;2023-04-25T05:11:24;7.33;;;4.40;;
15261;SDS011;7733;51.554;13.590;2023-04-25T05:13:53;5.30;;;4.00;;
15261;SDS011;7733;51.554;13.590;2023-04-25T05:16:19;6.17;;;4.20;;
15261;SDS011;7733;51.554;13.590;2023-04-25T05:18:46;7.53;;;4.37;;
15261;SDS011;7733;51.554;13.590;2023-04-25T05:21:12;6.67;;;4.20;;
15261;SDS011;7733;51.554;13.590;2023-04-25T05:23:37;4.63;;;3.80;;
15261;SDS011;7733;51.554;13.590;2023-04-25T05:26:03;5.90;;;4.60;;
15261;SDS011;7733;51.554;13.590;2023-04-25T05:28:30;5.03;;;3.70;;
15261;SDS011;7733;51.554;13.590;2023-04-25T05:30:56;4.90;;;4.03;;
15261;SDS011;7733;51.554;13.590;2023-04-25T05:33:21;6.27;;;4.00;;
15261;SDS011;7733;51.554;13.590;2023-04-25T05:35:47;5.77;;;4.10;;
15261;SDS011;7733;51.554;13.590;2023-04-25T05:38:15;4.60;;;3.90;;
15261;SDS011;7733;51.554;13.590;2023-04-25T05:40:40;4.77;;;3.57;;
15261;SDS011;7733;51.554;13.590;2023-04-25T05:43:06;4.27;;;3.87;;
15261;SDS011;7733;51.554;13.590;2023-04-25T05:45:32;4.57;;;3.37;;
15261;SDS011;7733;51.554;13.590;2023-04-25T05:47:58;3.77;;;3.47;;
15261;SDS011;7733;51.554;13.590;2023-04-25T05:50:23;4.23;;;3.87;;
15261;SDS011;7733;51.554;13.590;2023-04-25T05:52:49;4.10;;;3.70;;
15261;SDS011;7733;51.554;13.590;2023-04-25T05:55:15;4.40;;;4.00;;
15261;SDS011;7733;51.554;13.590;2023-04-25T05:57:41;4.77;;;3.67;;
15261;SDS011;7733;51.554;13.590;2023-04-25T06:00:10;5.97;;;4.17;;
15261;SDS011;7733;51.554;13.590;2023-04-25T06:02:38;4.63;;;3.30;;
15261;SDS011;7733;51.554;13.590;2023-04-25T06:05:03;4.77;;;3.50;;
15261;SDS011;7733;51.554;13.590;2023-04-25T06:07:30;4.67;;;3.43;;
15261;SDS011;7733;51.554;13.590;2023-04-25T06:09:56;4.87;;;3.50;;
15261;SDS011;7733;51.554;13.590;2023-04-25T06:12:22;4.57;;;3.80;;
15261;SDS011;7733;51.554;13.590;2023-04-25T06:14:47;6.03;;;3.90;;
15261;SDS011;7733;51.554;13.590;2023-04-25T06:17:13;5.13;;;3.80;;
15261;SDS011;7733;51.554;13.590;2023-04-25T06:19:39;6.13;;;3.60;;
15261;SDS011;7733;51.554;13.590;2023-04-25T06:22:05;5.10;;;3.53;;
15261;SDS011;7733;51.554;13.590;2023-04-25T06:24:32;4.10;;;3.23;;
15261;SDS011;7733;51.554;13.590;2023-04-25T06:26:58;5.67;;;3.20;;
15261;SDS011;7733;51.554;13.590;2023-04-25T06:29:25;6.83;;;4.00;;
15261;SDS011;7733;51.554;13.590;2023-04-25T06:31:51;7.90;;;3.30;;
15261;SDS011;7733;51.554;13.590;2023-04-25T06:34:17;4.37;;;3.80;;
15261;SDS011;7733;51.554;13.590;2023-04-25T06:36:43;5.60;;;3.30;;
15261;SDS011;7733;51.554;13.590;2023-04-25T06:39:09;4.30;;;3.37;;
15261;SDS011;7733;51.554;13.590;2023-04-25T06:41:35;8.30;;;3.70;;
15261;SDS011;7733;51.554;13.590;2023-04-25T06:44:01;6.10;;;3.83;;
15261;SDS011;7733;51.554;13.590;2023-04-25T06:46:27;5.97;;;3.73;;
15261;SDS011;7733;51.554;13.590;2023-04-25T06:48:53;4.60;;;3.50;;
15261;SDS011;7733;51.554;13.590;2023-04-25T06:51:19;4.03;;;3.30;;
15261;SDS011;7733;51.554;13.590;2023-04-25T06:53:44;6.00;;;3.37;;
15261;SDS011;7733;51.554;13.590;2023-04-25T06:56:10;3.43;;;3.10;;
15261;SDS011;7733;51.554;13.590;2023-04-25T06:58:36;4.77;;;3.40;;
15261;SDS011;7733;51.554;13.590;2023-04-25T07:01:01;4.83;;;3.60;;
15261;SDS011;7733;51.554;13.590;2023-04-25T07:03:28;5.00;;;3.60;;
15261;SDS011;7733;51.554;13.590;2023-04-25T07:05:53;4.67;;;3.33;;
15261;SDS011;7733;51.554;13.590;2023-04-25T07:08:20;3.63;;;3.30;;
15261;SDS011;7733;51.554;13.590;2023-04-25T07:10:46;4.27;;;3.10;;
15261;SDS011;7733;51.554;13.590;2023-04-25T07:13:12;4.77;;;3.37;;
15261;SDS011;7733;51.554;13.590;2023-04-25T07:15:37;6.53;;;3.20;;
15261;SDS011;7733;51.554;13.590;2023-04-25T07:18:03;4.20;;;3.37;;
15261;SDS011;7733;51.554;13.590;2023-04-25T07:20:29;5.30;;;3.40;;
15261;SDS011;7733;51.554;13.590;2023-04-25T07:22:55;6.20;;;3.30;;
15261;SDS011;7733;51.554;13.590;2023-04-25T07:25:22;5.33;;;3.47;;
15261;SDS011;7733;51.554;13.590;2023-04-25T07:27:48;3.27;;;2.97;;
15261;SDS011;7733;51.554;13.590;2023-04-25T07:30:14;5.40;;;3.33;;
15261;SDS011;7733;51.554;13.590;2023-04-25T07:32:40;7.23;;;3.53;;
15261;SDS011;7733;51.554;13.590;2023-04-25T07:35:06;5.07;;;3.57;;
15261;SDS011;7733;51.554;13.590;2023-04-25T07:37:35;5.70;;;3.17;;
15261;SDS011;7733;51.554;13.590;2023-04-25T07:40:02;4.30;;;3.20;;
15261;SDS011;7733;51.554;13.590;2023-04-25T07:42:31;5.00;;;3.17;;
15261;SDS011;7733;51.554;13.590;2023-04-25T07:44:57;4.50;;;3.20;;
15261;SDS011;7733;51.554;13.590;2023-04-25T07:47:23;4.20;;;2.90;;
15261;SDS011;7733;51.554;13.590;2023-04-25T07:49:49;4.53;;;2.73;;
15261;SDS011;7733;51.554;13.590;2023-04-25T07:52:15;3.23;;;2.63;;
15261;SDS011;7733;51.554;13.590;2023-04-25T07:54:41;3.00;;;2.70;;
15261;SDS011;7733;51.554;13.590;2023-04-25T07:57:06;3.40;;;3.10;;
15261;SDS011;7733;51.554;13.590;2023-04-25T07:59:32;3.17;;;2.87;;
15261;SDS011;7733;51.554;13.590;2023-04-25T08:01:58;3.53;;;2.87;;
15261;SDS011;7733;51.554;13.590;2023-04-25T08:04:24;4.37;;;3.13;;
15261;SDS011;7733;51.554;13.590;2023-04-25T08:06:52;4.67;;;2.87;;
15261;SDS011;7733;51.554;13.590;2023-04-25T08:09:19;3.40;;;2.83;;
15261;SDS011;7733;51.554;13.590;2023-04-25T08:11:45;5.77;;;5.37;;
15261;SDS011;7733;51.554;13.590;2023-04-25T08:14:12;11.90;;;10.00;;
15261;SDS011;7733;51.554;13.590;2023-04-25T08:16:38;12.20;;;10.93;;
15261;SDS011;7733;51.554;13.590;2023-04-25T08:19:04;4.73;;;4.20;;
15261;SDS011;7733;51.554;13.590;2023-04-25T08:21:31;20.57;;;18.70;;
15261;SDS011;7733;51.554;13.590;2023-04-25T08:23:57;9.70;;;6.17;;
15261;SDS011;7733;51.554;13.590;2023-04-25T08:26:23;11.87;;;10.17;;
15261;SDS011;7733;51.554;13.590;2023-04-25T08:28:50;6.00;;;3.77;;
15261;SDS011;7733;51.554;13.590;2023-04-25T08:31:16;3.17;;;2.97;;
15261;SDS011;7733;51.554;13.590;2023-04-25T08:33:42;5.50;;;5.00;;
15261;SDS011;7733;51.554;13.590;2023-04-25T08:36:10;8.30;;;7.70;;
15261;SDS011;7733;51.554;13.590;2023-04-25T08:38:36;15.77;;;14.33;;
15261;SDS011;7733;51.554;13.590;2023-04-25T08:41:02;17.57;;;15.90;;
15261;SDS011;7733;51.554;13.590;2023-04-25T08:43:28;8.30;;;7.10;;
15261;SDS011;7733;51.554;13.590;2023-04-25T08:45:58;6.73;;;5.63;;
15261;SDS011;7733;51.554;13.590;2023-04-25T08:48:29;42.10;;;36.20;;
15261;SDS011;7733;51.554;13.590;2023-04-25T08:50:59;12.37;;;9.33;;
15261;SDS011;7733;51.554;13.590;2023-04-25T08:53:30;2.87;;;2.67;;
15261;SDS011;7733;51.554;13.590;2023-04-25T08:55:58;6.23;;;5.70;;
15261;SDS011;7733;51.554;13.590;2023-04-25T08:58:30;30.53;;;27.23;;
15261;SDS011;7733;51.554;13.590;2023-04-25T09:00:57;13.00;;;11.70;;
15261;SDS011;7733;51.554;13.590;2023-04-25T09:03:24;5.17;;;4.77;;
15261;SDS011;7733;51.554;13.590;2023-04-25T09:05:51;3.70;;;3.43;;
15261;SDS011;7733;51.554;13.590;2023-04-25T09:08:17;6.23;;;5.63;;
15261;SDS011;7733;51.554;13.590;2023-04-25T09:10:43;5.60;;;5.10;;
15261;SDS011;7733;51.554;13.590;2023-04-25T09:13:10;4.57;;;4.27;;
15261;SDS011;7733;51.554;13.590;2023-04-25T09:15:50;4.50;;;4.20;;
15261;SDS011;7733;51.554;13.590;2023-04-25T09:20:51;10.73;;;9.83;;
15261;SDS011;7733;51.554;13.590;2023-04-25T09:23:18;136.97;;;117.53;;
15261;SDS011;7733;51.554;13.590;2023-04-25T09:25:50;102.17;;;88.63;;
15261;SDS011;7733;51.554;13.590;2023-04-25T09:28:27;79.33;;;70.97;;
15261;SDS011;7733;51.554;13.590;2023-04-25T09:30:56;56.47;;;50.63;;
15261;SDS011;7733;51.554;13.590;2023-04-25T09:33:29;14.47;;;13.17;;
15261;SDS011;7733;51.554;13.590;2023-04-25T09:36:04;7.13;;;6.53;;
15261;SDS011;7733;51.554;13.590;2023-04-25T09:38:39;19.47;;;17.80;;
15261;SDS011;7733;51.554;13.590;2023-04-25T09:41:08;12.40;;;11.47;;
15261;SDS011;7733;51.554;13.590;2023-04-25T09:43:35;5.87;;;5.33;;
15261;SDS011;7733;51.554;13.590;2023-04-25T09:46:02;4.60;;;4.20;;
15261;SDS011;7733;51.554;13.590;2023-04-25T09:48:33;4.40;;;4.00;;
15261;SDS011;7733;51.554;13.590;2023-04-25T09:53:39;4.03;;;3.73;;
15261;SDS011;7733;51.554;13.590;2023-04-25T09:56:08;4.40;;;4.07;;
15261;SDS011;7733;51.554;13.590;2023-04-25T09:58:36;4.73;;;4.17;;
15261;SDS011;7733;51.554;13.590;2023-04-25T10:01:05;3.70;;;3.40;;
15261;SDS011;7733;51.554;13.590;2023-04-25T10:03:37;4.07;;;3.70;;
15261;SDS011;7733;51.554;13.590;2023-04-25T10:06:08;4.10;;;3.80;;
15261;SDS011;7733;51.554;13.590;2023-04-25T10:08:39;4.00;;;3.70;;
15261;SDS011;7733;51.554;13.590;2023-04-25T10:11:06;3.77;;;3.47;;
15261;SDS011;7733;51.554;13.590;2023-04-25T10:13:34;19.30;;;17.37;;
15261;SDS011;7733;51.554;13.590;2023-04-25T10:16:02;25.53;;;22.83;;
15261;SDS011;7733;51.554;13.590;2023-04-25T10:18:29;9.77;;;8.83;;
15261;SDS011;7733;51.554;13.590;2023-04-25T10:20:58;7.30;;;5.33;;
15261;SDS011;7733;51.554;13.590;2023-04-25T10:23:26;18.00;;;16.53;;
15261;SDS011;7733;51.554;13.590;2023-04-25T10:25:54;8.10;;;5.90;;
15261;SDS011;7733;51.554;13.590;2023-04-25T10:28:21;5.00;;;4.17;;
15261;SDS011;7733;51.554;13.590;2023-04-25T10:31:04;4.67;;;3.50;;
15261;SDS011;7733;51.554;13.590;2023-04-25T10:33:39;6.03;;;5.53;;
15261;SDS011;7733;51.554;13.590;2023-04-25T10:36:14;7.00;;;3.50;;
15261;SDS011;7733;51.554;13.590;2023-04-25T10:38:47;4.50;;;3.10;;
15261;SDS011;7733;51.554;13.590;2023-04-25T10:41:17;3.83;;;3.50;;
15261;SDS011;7733;51.554;13.590;2023-04-25T10:43:45;3.30;;;3.00;;
15261;SDS011;7733;51.554;13.590;2023-04-25T10:48:50;5.57;;;2.90;;
15261;SDS011;7733;51.554;13.590;2023-04-25T10:54:02;5.27;;;3.13;;
15261;SDS011;7733;51.554;13.590;2023-04-25T10:56:36;3.60;;;2.90;;
15261;SDS011;7733;51.554;13.590;2023-04-25T11:01:51;7.83;;;3.07;;
15261;SDS011;7733;51.554;13.590;2023-04-25T11:04:29;5.10;;;2.70;;
15261;SDS011;7733;51.554;13.590;2023-04-25T11:09:45;10.30;;;3.00;;
15261;SDS011;7733;51.554;13.590;2023-04-25T11:12:11;8.13;;;2.80;;
15261;SDS011;7733;51.554;13.590;2023-04-25T11:14:38;8.93;;;3.50;;
15261;SDS011;7733;51.554;13.590;2023-04-25T11:17:03;9.27;;;4.40;;
15261;SDS011;7733;51.554;13.590;2023-04-25T11:19:30;9.10;;;4.03;;
15261;SDS011;7733;51.554;13.590;2023-04-25T11:21:57;6.70;;;3.73;;
15261;SDS011;7733;51.554;13.590;2023-04-25T11:24:26;7.40;;;3.37;;
15261;SDS011;7733;51.554;13.590;2023-04-25T11:26:57;12.37;;;8.23;;
15261;SDS011;7733;51.554;13.590;2023-04-25T11:29:27;14.77;;;5.60;;
15261;SDS011;7733;51.554;13.590;2023-04-25T11:31:55;12.07;;;6.37;;
15261;SDS011;7733;51.554;13.590;2023-04-25T11:34:23;8.37;;;3.87;;
15261;SDS011;7733;51.554;13.590;2023-04-25T11:36:55;10.90;;;4.13;;
15261;SDS011;7733;51.554;13.590;2023-04-25T11:39:21;8.87;;;2.90;;
15261;SDS011;7733;51.554;13.590;2023-04-25T11:41:50;6.73;;;2.80;;
15261;SDS011;7733;51.554;13.590;2023-04-25T11:44:16;7.63;;;3.23;;
15261;SDS011;7733;51.554;13.590;2023-04-25T11:46:44;10.30;;;3.17;;
15261;SDS011;7733;51.554;13.590;2023-04-25T11:49:10;10.37;;;3.80;;
15261;SDS011;7733;51.554;13.590;2023-04-25T11:51:39;6.30;;;3.00;;
15261;SDS011;7733;51.554;13.590;2023-04-25T11:54:07;7.70;;;2.77;;
15261;SDS011;7733;51.554;13.590;2023-04-25T11:56:32;6.97;;;3.00;;
15261;SDS011;7733;51.554;13.590;2023-04-25T11:59:07;6.53;;;3.23;;
15261;SDS011;7733;51.554;13.590;2023-04-25T12:01:34;9.10;;;3.07;;
15261;SDS011;7733;51.554;13.590;2023-04-25T12:06:46;7.30;;;2.80;;
15261;SDS011;7733;51.554;13.590;2023-04-25T12:09:17;7.77;;;3.10;;
15261;SDS011;7733;51.554;13.590;2023-04-25T12:11:56;12.17;;;3.07;;
15261;SDS011;7733;51.554;13.590;2023-04-25T12:14:24;6.63;;;3.13;;
15261;SDS011;7733;51.554;13.590;2023-04-25T12:16:57;6.60;;;3.23;;
15261;SDS011;7733;51.554;13.590;2023-04-25T12:19:25;11.10;;;3.30;;
15261;SDS011;7733;51.554;13.590;2023-04-25T12:21:59;7.50;;;3.10;;
15261;SDS011;7733;51.554;13.590;2023-04-25T12:24:28;6.83;;;3.20;;
15261;SDS011;7733;51.554;13.590;2023-04-25T12:27:03;7.37;;;2.90;;
15261;SDS011;7733;51.554;13.590;2023-04-25T12:29:31;10.00;;;3.10;;
15261;SDS011;7733;51.554;13.590;2023-04-25T12:31:59;10.90;;;3.50;;
15261;SDS011;7733;51.554;13.590;2023-04-25T12:34:26;9.33;;;3.47;;
15261;SDS011;7733;51.554;13.590;2023-04-25T12:36:53;10.33;;;3.27;;
15261;SDS011;7733;51.554;13.590;2023-04-25T12:39:22;6.80;;;3.10;;
15261;SDS011;7733;51.554;13.590;2023-04-25T12:41:52;7.57;;;3.00;;
15261;SDS011;7733;51.554;13.590;2023-04-25T12:44:21;8.57;;;3.40;;
15261;SDS011;7733;51.554;13.590;2023-04-25T12:46:47;6.37;;;3.00;;
15261;SDS011;7733;51.554;13.590;2023-04-25T12:49:13;6.17;;;2.80;;
15261;SDS011;7733;51.554;13.590;2023-04-25T12:51:39;8.60;;;3.53;;
15261;SDS011;7733;51.554;13.590;2023-04-25T12:54:06;8.47;;;3.40;;
15261;SDS011;7733;51.554;13.590;2023-04-25T12:56:33;6.40;;;2.87;;
15261;SDS011;7733;51.554;13.590;2023-04-25T12:59:00;5.10;;;2.77;;
15261;SDS011;7733;51.554;13.590;2023-04-25T13:01:27;8.20;;;2.93;;
15261;SDS011;7733;51.554;13.590;2023-04-25T13:03:54;8.57;;;4.47;;
15261;SDS011;7733;51.554;13.590;2023-04-25T13:06:20;5.83;;;3.10;;
15261;SDS011;7733;51.554;13.590;2023-04-25T13:08:47;9.40;;;3.33;;
15261;SDS011;7733;51.554;13.590;2023-04-25T13:11:13;6.43;;;2.90;;
15261;SDS011;7733;51.554;13.590;2023-04-25T13:13:42;7.43;;;3.13;;
15261;SDS011;7733;51.554;13.590;2023-04-25T13:16:09;5.97;;;2.70;;
15261;SDS011;7733;51.554;13.590;2023-04-25T13:18:35;5.17;;;2.87;;
15261;SDS011;7733;51.554;13.590;2023-04-25T13:21:01;5.50;;;2.97;;
15261;SDS011;7733;51.554;13.590;2023-04-25T13:23:27;7.00;;;3.03;;
15261;SDS011;7733;51.554;13.590;2023-04-25T13:25:54;6.60;;;2.60;;
15261;SDS011;7733;51.554;13.590;2023-04-25T13:28:22;7.67;;;2.87;;
15261;SDS011;7733;51.554;13.590;2023-04-25T13:30:50;4.77;;;2.57;;
15261;SDS011;7733;51.554;13.590;2023-04-25T13:33:16;5.93;;;2.83;;
15261;SDS011;7733;51.554;13.590;2023-04-25T13:35:43;7.13;;;3.63;;
15261;SDS011;7733;51.554;13.590;2023-04-25T13:38:12;6.33;;;2.80;;
15261;SDS011;7733;51.554;13.590;2023-04-25T13:40:38;7.60;;;2.93;;
15261;SDS011;7733;51.554;13.590;2023-04-25T13:43:04;5.43;;;2.87;;
15261;SDS011;7733;51.554;13.590;2023-04-25T13:45:31;7.00;;;3.00;;
15261;SDS011;7733;51.554;13.590;2023-04-25T13:47:57;7.47;;;3.20;;
15261;SDS011;7733;51.554;13.590;2023-04-25T13:50:23;7.87;;;3.43;;
15261;SDS011;7733;51.554;13.590;2023-04-25T13:52:49;6.07;;;2.63;;
15261;SDS011;7733;51.554;13.590;2023-04-25T13:55:14;7.77;;;3.63;;
15261;SDS011;7733;51.554;13.590;2023-04-25T13:57:40;5.67;;;2.60;;
15261;SDS011;7733;51.554;13.590;2023-04-25T14:00:07;5.93;;;3.00;;
15261;SDS011;7733;51.554;13.590;2023-04-25T14:02:37;11.20;;;3.40;;
15261;SDS011;7733;51.554;13.590;2023-04-25T14:05:03;3.57;;;3.00;;
15261;SDS011;7733;51.554;13.590;2023-04-25T14:07:30;8.80;;;6.83;;
15261;SDS011;7733;51.554;13.590;2023-04-25T14:09:56;4.43;;;3.57;;
15261;SDS011;7733;51.554;13.590;2023-04-25T14:12:23;5.30;;;2.70;;
15261;SDS011;7733;51.554;13.590;2023-04-25T14:14:49;5.23;;;2.90;;
15261;SDS011;7733;51.554;13.590;2023-04-25T14:17:15;7.50;;;3.10;;
15261;SDS011;7733;51.554;13.590;2023-04-25T14:19:41;5.83;;;3.20;;
15261;SDS011;7733;51.554;13.590;2023-04-25T14:22:10;10.00;;;4.57;;
15261;SDS011;7733;51.554;13.590;2023-04-25T14:24:36;4.97;;;3.77;;
15261;SDS011;7733;51.554;13.590;2023-04-25T14:27:03;11.40;;;5.70;;
15261;SDS011;7733;51.554;13.590;2023-04-25T14:29:29;4.63;;;2.60;;
15261;SDS011;7733;51.554;13.590;2023-04-25T14:31:55;7.47;;;4.30;;
15261;SDS011;7733;51.554;13.590;2023-04-25T14:34:22;6.07;;;4.30;;
15261;SDS011;7733;51.554;13.590;2023-04-25T14:36:48;7.30;;;4.77;;
15261;SDS011;7733;51.554;13.590;2023-04-25T14:39:14;6.60;;;3.10;;
15261;SDS011;7733;51.554;13.590;2023-04-25T14:41:41;3.87;;;2.00;;
15261;SDS011;7733;51.554;13.590;2023-04-25T14:44:07;8.30;;;4.03;;
15261;SDS011;7733;51.554;13.590;2023-04-25T14:46:33;4.20;;;2.90;;
15261;SDS011;7733;51.554;13.590;2023-04-25T14:48:59;6.67;;;3.80;;
15261;SDS011;7733;51.554;13.590;2023-04-25T14:51:26;5.57;;;3.60;;
15261;SDS011;7733;51.554;13.590;2023-04-25T14:53:52;6.30;;;3.20;;
15261;SDS011;7733;51.554;13.590;2023-04-25T14:56:18;8.17;;;5.30;;
15261;SDS011;7733;51.554;13.590;2023-04-25T14:58:44;14.23;;;7.20;;
15261;SDS011;7733;51.554;13.590;2023-04-25T15:01:10;12.37;;;7.97;;
15261;SDS011;7733;51.554;13.590;2023-04-25T15:03:37;9.00;;;5.83;;